Canmar Fortune — ZCBD3 — position and weather

sailwx.info

Track history (hours):
 
Tides and Currents Weather Stations Pressure Air Temp Water Temp Dewpoint Dewpoint Depression Visibility Wind Speed Wind Dir Waves Ship Positions

Canmar Fortune

Last reported at 2017-Oct-17 03:31 UTC. Time now 2017-Oct-17 08:19 UTC.
Position N 38°05' E 011°24'.

Length 216 m; draft 8 m.

Type: Ship (hazmat cat B). MMSI: 310132000.

Date/timePositionNaut miles runAvg speedWind from/ knotsBaromVisibWave heightAir tempDewpointWater temp
2017-Oct-17 03:31N 38°05' E 011°24'016.8
2017-Oct-17 03:30N 38°05' E 011°24'1316.4
2017-Oct-17 02:43N 37°56' E 011°35'416.4
2017-Oct-17 02:30N 37°53' E 011°38'916.4
2017-Oct-17 01:57N 37°48' E 011°47'1716.1
2017-Oct-17 00:54N 37°37' E 012°04'1416.0
2017-Oct-17 00:00N 37°28' E 012°19'816.0
2017-Oct-16 23:30N 37°25' E 012°27'815.9
2017-Oct-16 23:00N 37°21' E 012°36'916.2
2017-Oct-16 22:28N 37°16' E 012°46'816.4
2017-Oct-16 22:00N 37°13' E 012°54'3015.8
2017-Oct-16 20:07N 36°57' E 013°26'215.6
2017-Oct-16 20:00N 36°56' E 013°28'915.6
2017-Oct-16 19:27N 36°52' E 013°37'715.6
2017-Oct-16 19:00N 36°48' E 013°45'815.5
2017-Oct-16 18:29N 36°45' E 013°53'715.4
2017-Oct-16 18:00N 36°41' E 014°01'815.3
2017-Oct-16 17:30N 36°37' E 014°10'815.1
2017-Oct-16 17:00N 36°34' E 014°18'815.4
2017-Oct-16 16:30N 36°30' E 014°27'815.6
2017-Oct-16 16:00N 36°26' E 014°35'815.5
2017-Oct-16 15:30N 36°24' E 014°44'13315.2
2017-Oct-16 06:44N 37°31' E 017°09'1416.7
2017-Oct-16 05:53N 37°26' E 017°26'816.8
2017-Oct-16 05:22N 37°24' E 017°36'717.0
2017-Oct-16 04:57N 37°21' E 017°44'817.1
2017-Oct-16 04:30N 37°19' E 017°54'917.0
2017-Oct-16 03:59N 37°17' E 018°04'816.9
2017-Oct-16 03:31N 37°14' E 018°14'817.0
2017-Oct-16 03:00N 37°11' E 018°24'816.9
2017-Oct-16 02:30N 37°09' E 018°34'816.7
2017-Oct-16 02:00N 37°06' E 018°44'816.8
2017-Oct-16 01:31N 37°03' E 018°54'816.5
2017-Oct-16 01:00N 37°01' E 019°04'816.4
2017-Oct-16 00:30N 36°58' E 019°13'816.1
2017-Oct-16 00:00N 36°56' E 019°23'816.2
2017-Oct-15 23:30N 36°53' E 019°33'20311.9
2017-Oct-15 06:28N 37°27' E 023°44'817.8
2017-Oct-15 06:00N 37°35' E 023°44'917.4
2017-Oct-15 05:30N 37°43' E 023°40'816.7
2017-Oct-15 05:00N 37°51' E 023°37'510.9
2017-Oct-15 04:30N 37°56' E 023°36'1 1.7
2017-Oct-15 03:59N 37°57' E 023°36'0 0.0
2017-Oct-15 03:29N 37°57' E 023°36'0 0.0
2017-Oct-15 02:59N 37°57' E 023°36'0 0.0
2017-Oct-15 02:29N 37°57' E 023°36'0 0.0
2017-Oct-15 01:59N 37°57' E 023°36'0 0.0
2017-Oct-15 01:29N 37°57' E 023°36'0 0.0
2017-Oct-15 01:00N 37°57' E 023°36'0 0.0
2017-Oct-15 00:30N 37°57' E 023°36'0 0.0
2017-Oct-15 00:00N 37°57' E 023°36'0 0.0
2017-Oct-14 23:30N 37°57' E 023°36'0 0.0
2017-Oct-14 23:00N 37°57' E 023°36'0 0.0
2017-Oct-14 22:30N 37°57' E 023°36'0 0.0
2017-Oct-14 22:00N 37°57' E 023°36'0 0.0
2017-Oct-14 21:30N 37°57' E 023°36'0 0.0
2017-Oct-14 21:00N 37°57' E 023°36'0 0.0
2017-Oct-14 20:30N 37°57' E 023°36'1 2.9
2017-Oct-14 20:01N 37°56' E 023°36'1 2.7
2017-Oct-14 19:30N 37°54' E 023°36'4 8.2
2017-Oct-14 19:00N 37°50' E 023°34'0 0.8
2017-Oct-14 18:30N 37°51' E 023°35'0 1.0
2017-Oct-14 18:00N 37°51' E 023°35'0 1.0
2017-Oct-14 17:30N 37°52' E 023°35'0 1.0
2017-Oct-14 17:00N 37°52' E 023°36'0 0.7
2017-Oct-14 16:30N 37°52' E 023°36'0 0.6
2017-Oct-14 16:00N 37°52' E 023°36'0 0.4
2017-Oct-14 15:30N 37°53' E 023°36'2 3.0
2017-Oct-14 15:00N 37°52' E 023°38'2 4.3
2017-Oct-14 14:30N 37°50' E 023°39'2 4.6
2017-Oct-14 14:00N 37°48' E 023°40'4 8.5
2017-Oct-14 13:30N 37°44' E 023°43'612.6
2017-Oct-14 13:00N 37°38' E 023°46'815.0
2017-Oct-14 12:30N 37°35' E 023°55'715.3
2017-Oct-14 12:00N 37°34' E 024°04'1415.9
2017-Oct-14 11:07N 37°43' E 024°18'515.8
2017-Oct-14 10:49N 37°46' E 024°23'1216.3
2017-Oct-14 10:03N 37°55' E 024°34'64 1.7
2017-Oct-12 19:28N 37°39' E 025°52'811.5
2017-Oct-12 18:47N 37°31' E 025°53'312.1
2017-Oct-12 18:30N 37°28' E 025°54'23711.9
2017-Oct-11 22:39N 35°46' E 030°21'  
Track history (hours):
 
Tides and Currents Weather Stations Pressure Air Temp Water Temp Dewpoint Dewpoint Depression Visibility Wind Speed Wind Dir Waves Ship Positions

Canmar Fortune

Last reported at 2017-Oct-17 03:31 UTC. Time now 2017-Oct-17 08:19 UTC.
Position N 38°05' E 011°24'.

Length 216 m; draft 8 m.

Type: Ship (hazmat cat B). MMSI: 310132000.

Date/timePositionNaut miles runAvg speedWind from/ knotsBaromVisibWave heightAir tempDewpointWater temp
2017-Oct-17 03:31N 38°05' E 011°24'016.8
2017-Oct-17 03:30N 38°05' E 011°24'1316.4
2017-Oct-17 02:43N 37°56' E 011°35'416.4
2017-Oct-17 02:30N 37°53' E 011°38'916.4
2017-Oct-17 01:57N 37°48' E 011°47'1716.1
2017-Oct-17 00:54N 37°37' E 012°04'1416.0
2017-Oct-17 00:00N 37°28' E 012°19'816.0
2017-Oct-16 23:30N 37°25' E 012°27'815.9
2017-Oct-16 23:00N 37°21' E 012°36'916.2
2017-Oct-16 22:28N 37°16' E 012°46'816.4
2017-Oct-16 22:00N 37°13' E 012°54'3015.8
2017-Oct-16 20:07N 36°57' E 013°26'215.6
2017-Oct-16 20:00N 36°56' E 013°28'915.6
2017-Oct-16 19:27N 36°52' E 013°37'715.6
2017-Oct-16 19:00N 36°48' E 013°45'815.5
2017-Oct-16 18:29N 36°45' E 013°53'715.4
2017-Oct-16 18:00N 36°41' E 014°01'815.3
2017-Oct-16 17:30N 36°37' E 014°10'815.1
2017-Oct-16 17:00N 36°34' E 014°18'815.4
2017-Oct-16 16:30N 36°30' E 014°27'815.6
2017-Oct-16 16:00N 36°26' E 014°35'815.5
2017-Oct-16 15:30N 36°24' E 014°44'13315.2
2017-Oct-16 06:44N 37°31' E 017°09'1416.7
2017-Oct-16 05:53N 37°26' E 017°26'816.8
2017-Oct-16 05:22N 37°24' E 017°36'717.0
2017-Oct-16 04:57N 37°21' E 017°44'817.1
2017-Oct-16 04:30N 37°19' E 017°54'917.0
2017-Oct-16 03:59N 37°17' E 018°04'816.9
2017-Oct-16 03:31N 37°14' E 018°14'817.0
2017-Oct-16 03:00N 37°11' E 018°24'816.9
2017-Oct-16 02:30N 37°09' E 018°34'816.7
2017-Oct-16 02:00N 37°06' E 018°44'816.8
2017-Oct-16 01:31N 37°03' E 018°54'816.5
2017-Oct-16 01:00N 37°01' E 019°04'816.4
2017-Oct-16 00:30N 36°58' E 019°13'816.1
2017-Oct-16 00:00N 36°56' E 019°23'816.2
2017-Oct-15 23:30N 36°53' E 019°33'20311.9
2017-Oct-15 06:28N 37°27' E 023°44'817.8
2017-Oct-15 06:00N 37°35' E 023°44'917.4
2017-Oct-15 05:30N 37°43' E 023°40'816.7
2017-Oct-15 05:00N 37°51' E 023°37'510.9
2017-Oct-15 04:30N 37°56' E 023°36'1 1.7
2017-Oct-15 03:59N 37°57' E 023°36'0 0.0
2017-Oct-15 03:29N 37°57' E 023°36'0 0.0
2017-Oct-15 02:59N 37°57' E 023°36'0 0.0
2017-Oct-15 02:29N 37°57' E 023°36'0 0.0
2017-Oct-15 01:59N 37°57' E 023°36'0 0.0
2017-Oct-15 01:29N 37°57' E 023°36'0 0.0
2017-Oct-15 01:00N 37°57' E 023°36'0 0.0
2017-Oct-15 00:30N 37°57' E 023°36'0 0.0
2017-Oct-15 00:00N 37°57' E 023°36'0 0.0
2017-Oct-14 23:30N 37°57' E 023°36'0 0.0
2017-Oct-14 23:00N 37°57' E 023°36'0 0.0
2017-Oct-14 22:30N 37°57' E 023°36'0 0.0
2017-Oct-14 22:00N 37°57' E 023°36'0 0.0
2017-Oct-14 21:30N 37°57' E 023°36'0 0.0
2017-Oct-14 21:00N 37°57' E 023°36'0 0.0
2017-Oct-14 20:30N 37°57' E 023°36'1 2.9
2017-Oct-14 20:01N 37°56' E 023°36'1 2.7
2017-Oct-14 19:30N 37°54' E 023°36'4 8.2
2017-Oct-14 19:00N 37°50' E 023°34'0 0.8
2017-Oct-14 18:30N 37°51' E 023°35'0 1.0
2017-Oct-14 18:00N 37°51' E 023°35'0 1.0
2017-Oct-14 17:30N 37°52' E 023°35'0 1.0
2017-Oct-14 17:00N 37°52' E 023°36'0 0.7
2017-Oct-14 16:30N 37°52' E 023°36'0 0.6
2017-Oct-14 16:00N 37°52' E 023°36'0 0.4
2017-Oct-14 15:30N 37°53' E 023°36'2 3.0
2017-Oct-14 15:00N 37°52' E 023°38'2 4.3
2017-Oct-14 14:30N 37°50' E 023°39'2 4.6
2017-Oct-14 14:00N 37°48' E 023°40'4 8.5
2017-Oct-14 13:30N 37°44' E 023°43'612.6
2017-Oct-14 13:00N 37°38' E 023°46'815.0
2017-Oct-14 12:30N 37°35' E 023°55'715.3
2017-Oct-14 12:00N 37°34' E 024°04'1415.9
2017-Oct-14 11:07N 37°43' E 024°18'515.8
2017-Oct-14 10:49N 37°46' E 024°23'1216.3
2017-Oct-14 10:03N 37°55' E 024°34'64 1.7
2017-Oct-12 19:28N 37°39' E 025°52'811.5
2017-Oct-12 18:47N 37°31' E 025°53'312.1
2017-Oct-12 18:30N 37°28' E 025°54'23711.9
2017-Oct-11 22:39N 35°46' E 030°21'  

Dump ship's entire track history